Airport ID:KTME
Update Time (UTC):20/10/2019 11:40
Wind Speed (Knots):3
Wind Direction (Magnetic):160
Temperature (°C):22.8
Dew Point (°C):22.6
Humidity (%):98.7
Altimeter (inHg):29.82
Density Altitude (Feet):01600
Visibility (Miles):10
Clouds (Hundreds of feet):SCT024 BKN036 OVC045
Present Weather:
METAR:METAR KTME 201140Z AUTO 16003KT 10SM SCT024 BKN036 OVC045 23/22 A2982 RMK AO2

The data displayed is for advisory purposes only and is not to be used for flight planning or operations.

This page is not automatically refreshed. Reload the page to see current data.